createdAt,value
2023-05-10T00:00:01.376Z,27.97
2023-05-10T00:01:01.357Z,25.00
2023-05-10T00:02:01.408Z,27.33
2023-05-10T00:03:01.610Z,27.37
2023-05-10T00:04:01.379Z,30.02
2023-05-10T00:05:01.338Z,29.08
2023-05-10T00:06:01.311Z,30.92
2023-05-10T00:07:01.317Z,27.67
2023-05-10T00:08:01.535Z,29.12
2023-05-10T00:09:01.287Z,29.77
2023-05-10T00:10:01.278Z,27.71
2023-05-10T00:11:01.287Z,30.32
2023-05-10T00:12:01.242Z,32.40
2023-05-10T00:13:01.334Z,30.96
2023-05-10T00:14:01.274Z,27.96
2023-05-10T00:15:01.243Z,29.83
2023-05-10T00:16:01.262Z,29.58
2023-05-10T00:17:01.336Z,29.16
2023-05-10T00:18:01.262Z,30.03
2023-05-10T00:19:01.215Z,28.96
2023-05-10T00:20:01.204Z,29.48
2023-05-10T00:21:01.195Z,26.57
2023-05-10T00:22:01.198Z,29.66
2023-05-10T00:23:01.200Z,28.91
2023-05-10T00:24:01.516Z,25.84
2023-05-10T00:25:01.213Z,29.25
2023-05-10T00:26:01.256Z,28.84
2023-05-10T00:27:01.296Z,31.24
2023-05-10T00:28:01.266Z,29.51
2023-05-10T00:29:01.266Z,26.57
2023-05-10T00:30:01.292Z,27.05
2023-05-10T00:31:01.328Z,27.79
2023-05-10T00:32:01.404Z,31.24
2023-05-10T00:33:01.383Z,29.93
2023-05-10T00:34:01.346Z,30.56
2023-05-10T00:35:01.351Z,30.14
2023-05-10T00:36:01.362Z,32.73
2023-05-10T00:37:01.368Z,32.60
2023-05-10T00:38:01.385Z,30.99
2023-05-10T00:39:01.577Z,29.04
2023-05-10T00:40:01.423Z,31.70
2023-05-10T00:41:01.426Z,29.04
2023-05-10T00:42:01.438Z,27.51
2023-05-10T00:43:01.460Z,28.59
2023-05-10T00:44:01.463Z,25.81
2023-05-10T00:45:01.475Z,31.54
2023-05-10T00:46:01.549Z,32.23
2023-05-10T00:47:01.488Z,28.77
2023-05-10T00:48:01.584Z,29.40
2023-05-10T00:49:02.033Z,28.63
2023-05-10T00:50:01.568Z,32.48
2023-05-10T00:51:01.557Z,31.28
2023-05-10T00:52:01.624Z,30.95
2023-05-10T00:53:01.606Z,29.89
2023-05-10T00:54:02.107Z,29.22
2023-05-10T00:55:01.697Z,31.89
2023-05-10T00:56:01.821Z,27.50
2023-05-10T00:57:01.704Z,29.18
2023-05-10T00:58:01.733Z,30.16
2023-05-10T00:59:02.085Z,29.25
2023-05-10T01:00:01.762Z,29.93
2023-05-10T01:01:01.816Z,27.82
2023-05-10T01:02:01.795Z,27.14
2023-05-10T01:03:01.837Z,30.28
2023-05-10T01:04:02.031Z,30.66
2023-05-10T01:05:01.881Z,26.71
2023-05-10T01:06:01.903Z,29.71
2023-05-10T01:07:01.881Z,30.63
2023-05-10T01:08:01.875Z,29.00
2023-05-10T01:09:02.061Z,30.02
2023-05-10T01:10:01.896Z,31.13
2023-05-10T01:11:01.948Z,27.51
2023-05-10T01:12:01.968Z,29.95
2023-05-10T01:13:02.028Z,28.05
2023-05-10T01:15:20.990Z,25.00
2023-05-10T01:16:20.994Z,25.00
2023-05-10T01:17:20.949Z,25.00
2023-05-10T01:18:20.944Z,25.00
2023-05-10T01:19:20.904Z,25.00
2023-05-10T01:20:20.920Z,25.00
2023-05-10T01:21:20.942Z,28.87
2023-05-10T01:22:20.871Z,26.92
2023-05-10T01:23:21.150Z,29.75
2023-05-10T01:24:20.869Z,26.14
2023-05-10T01:25:20.880Z,27.63
2023-05-10T01:26:20.915Z,25.00
2023-05-10T01:27:20.940Z,28.82
2023-05-10T01:28:20.977Z,27.30
2023-05-10T01:29:21.187Z,27.57
2023-05-10T01:31:21.074Z,27.62
2023-05-10T01:32:21.026Z,27.98
2023-05-10T01:33:21.043Z,26.50
2023-05-10T01:34:21.075Z,27.05
2023-05-10T01:35:21.075Z,29.87
2023-05-10T01:36:21.081Z,29.79
2023-05-10T01:37:21.091Z,27.47
2023-05-10T01:38:21.105Z,28.43
2023-05-10T01:39:21.156Z,28.20
2023-05-10T01:40:21.143Z,25.19
2023-05-10T01:41:21.154Z,27.66
2023-05-10T01:42:21.176Z,27.28
2023-05-10T01:43:21.205Z,28.62
2023-05-10T01:44:21.660Z,27.94
2023-05-10T01:45:21.301Z,27.47
2023-05-10T01:46:21.287Z,27.87
2023-05-10T01:47:21.262Z,28.36
2023-05-10T01:48:21.265Z,29.99
2023-05-10T01:49:21.304Z,27.74
2023-05-10T01:50:21.284Z,29.84
2023-05-10T01:51:21.326Z,25.63
2023-05-10T01:52:21.339Z,29.57
2023-05-10T01:53:21.393Z,28.80
2023-05-10T01:54:21.379Z,29.21
2023-05-10T01:55:21.395Z,29.82
2023-05-10T01:56:21.402Z,29.10
2023-05-10T01:57:21.425Z,28.65
2023-05-10T01:58:21.447Z,28.49
2023-05-10T01:59:21.665Z,27.53
2023-05-10T02:00:21.490Z,28.35
2023-05-10T02:01:21.552Z,28.65
2023-05-10T02:02:21.509Z,30.73
2023-05-10T02:03:21.577Z,28.43
2023-05-10T02:04:21.656Z,31.46
2023-05-10T02:05:21.574Z,25.72
2023-05-10T02:06:21.589Z,29.81
2023-05-10T02:07:21.597Z,29.34
2023-05-10T02:08:21.617Z,28.77
2023-05-10T02:09:21.696Z,29.05
2023-05-10T02:10:21.651Z,27.20
2023-05-10T02:11:21.652Z,28.97
2023-05-10T02:12:21.698Z,31.26
2023-05-10T02:13:21.745Z,31.92
2023-05-10T02:14:22.172Z,31.35
2023-05-10T02:15:21.736Z,25.18
2023-05-10T02:16:21.766Z,29.62
2023-05-10T02:17:21.737Z,28.34
2023-05-10T02:18:21.772Z,28.55
2023-05-10T02:19:22.211Z,30.01
2023-05-10T02:20:21.839Z,29.11
2023-05-10T02:21:21.841Z,28.23
2023-05-10T02:22:21.861Z,30.55
2023-05-10T02:23:21.892Z,27.52
2023-05-10T02:24:22.217Z,27.79
2023-05-10T02:25:21.948Z,32.56
2023-05-10T02:26:21.944Z,28.05
2023-05-10T02:27:21.946Z,28.01
2023-05-10T02:28:21.972Z,28.48
2023-05-10T02:29:22.014Z,30.57
2023-05-10T02:30:22.010Z,29.95
2023-05-10T02:31:22.123Z,28.82
2023-05-10T02:32:22.084Z,28.12
2023-05-10T02:33:22.058Z,28.65
2023-05-10T02:34:22.217Z,29.41
2023-05-10T02:35:22.108Z,31.27
2023-05-10T02:36:22.110Z,29.25
2023-05-10T02:37:22.149Z,31.64
2023-05-10T02:38:22.202Z,29.82
2023-05-10T02:39:22.212Z,28.22
2023-05-10T02:40:22.269Z,31.00
2023-05-10T02:41:22.280Z,29.08
2023-05-10T02:42:22.270Z,27.89
2023-05-10T02:43:22.313Z,29.53
2023-05-10T02:44:22.685Z,29.47
2023-05-10T02:45:22.364Z,29.89
2023-05-10T02:46:22.436Z,29.85
2023-05-10T02:47:22.416Z,28.73
2023-05-10T02:48:22.446Z,29.39
2023-05-10T02:49:22.711Z,30.70
2023-05-10T02:50:22.491Z,28.30
2023-05-10T02:51:22.503Z,29.64
2023-05-10T02:52:22.534Z,31.51
2023-05-10T02:53:22.555Z,30.56
2023-05-10T02:54:22.584Z,29.18
2023-05-10T02:55:22.612Z,25.56
2023-05-10T02:56:22.642Z,29.53
2023-05-10T02:57:22.677Z,29.01
2023-05-10T02:58:22.702Z,31.28
2023-05-10T02:59:23.241Z,28.37
2023-05-10T03:00:22.747Z,29.79
2023-05-10T03:01:22.774Z,29.24
2023-05-10T03:02:22.837Z,29.33
2023-05-10T03:03:22.835Z,29.02
2023-05-10T03:04:23.245Z,29.91
2023-05-10T03:05:22.839Z,31.25
2023-05-10T03:06:22.893Z,28.17
2023-05-10T03:07:22.895Z,29.21
2023-05-10T03:08:22.924Z,29.29
2023-05-10T03:09:23.251Z,29.78
2023-05-10T03:10:22.960Z,26.28
2023-05-10T03:11:22.986Z,29.67
2023-05-10T03:12:23.020Z,30.72
2023-05-10T03:13:23.142Z,30.47
2023-05-10T03:14:23.053Z,27.50
2023-05-10T03:15:23.095Z,30.68
2023-05-10T03:16:23.254Z,32.26
2023-05-10T03:17:23.227Z,30.34
2023-05-10T03:18:23.223Z,28.07
2023-05-10T03:19:23.254Z,30.25
2023-05-10T03:20:23.263Z,31.37
2023-05-10T03:21:23.294Z,30.38
2023-05-10T03:22:23.345Z,31.15
2023-05-10T03:23:23.358Z,32.14
2023-05-10T03:24:23.389Z,30.99
2023-05-10T03:25:23.386Z,29.58
2023-05-10T03:26:23.388Z,27.98
2023-05-10T03:27:23.425Z,30.99
2023-05-10T03:28:23.484Z,28.80
2023-05-10T03:29:23.707Z,31.65
2023-05-10T03:30:23.514Z,29.57
2023-05-10T03:31:23.612Z,30.31
2023-05-10T03:32:23.618Z,29.98
2023-05-10T03:33:23.612Z,30.42
2023-05-10T03:34:23.621Z,29.49
2023-05-10T03:35:23.678Z,30.63
2023-05-10T03:36:23.692Z,27.59
2023-05-10T03:37:23.753Z,31.96
2023-05-10T03:38:23.790Z,30.74
2023-05-10T03:39:23.797Z,31.01
2023-05-10T03:40:23.795Z,32.69
2023-05-10T03:41:23.837Z,31.11
2023-05-10T03:42:23.864Z,30.61
2023-05-10T03:43:23.895Z,31.05
2023-05-10T03:44:23.931Z,29.79
2023-05-10T03:45:23.970Z,31.76
2023-05-10T03:46:24.036Z,31.29
2023-05-10T03:47:24.005Z,31.10
2023-05-10T03:48:24.027Z,30.72
2023-05-10T03:49:24.054Z,34.22
2023-05-10T03:50:24.081Z,32.17
2023-05-10T03:51:24.116Z,31.85
2023-05-10T03:52:24.151Z,32.94
2023-05-10T03:53:24.198Z,31.42
2023-05-10T03:54:24.240Z,30.51
2023-05-10T03:55:24.246Z,30.68
2023-05-10T03:56:24.288Z,32.71
2023-05-10T03:57:24.300Z,31.67
2023-05-10T03:58:24.346Z,31.57
2023-05-10T03:59:24.339Z,31.04
2023-05-10T04:00:24.398Z,31.58
2023-05-10T04:01:24.419Z,32.68
2023-05-10T04:02:24.591Z,31.80
2023-05-10T04:03:24.545Z,32.98
2023-05-10T04:04:24.527Z,32.46
2023-05-10T04:05:24.555Z,31.99
2023-05-10T04:06:24.629Z,31.50
2023-05-10T04:07:24.607Z,32.10
2023-05-10T04:08:24.605Z,32.54
2023-05-10T04:09:24.654Z,31.59
2023-05-10T04:10:24.762Z,30.39
2023-05-10T04:11:24.725Z,31.35
2023-05-10T04:12:24.732Z,32.77
2023-05-10T04:13:24.902Z,30.16
2023-05-10T04:14:24.783Z,32.43
2023-05-10T04:15:24.842Z,32.14
2023-05-10T04:16:24.904Z,31.16
2023-05-10T04:17:24.900Z,30.95
2023-05-10T04:18:24.950Z,30.77
2023-05-10T04:19:24.969Z,32.14
2023-05-10T04:20:25.017Z,32.47
2023-05-10T04:21:25.036Z,31.52
2023-05-10T04:22:25.064Z,32.75
2023-05-10T04:23:25.084Z,32.25
2023-05-10T04:24:25.270Z,33.25
2023-05-10T04:25:25.133Z,33.26
2023-05-10T04:26:25.195Z,33.24
2023-05-10T04:27:25.212Z,31.63
2023-05-10T04:28:25.291Z,32.37
2023-05-10T04:29:25.307Z,34.13
2023-05-10T04:30:25.300Z,32.04
2023-05-10T04:31:25.344Z,33.08
2023-05-10T04:32:25.405Z,34.61
2023-05-10T04:33:25.372Z,31.45
2023-05-10T04:34:25.451Z,33.52
2023-05-10T04:35:25.455Z,34.30
2023-05-10T04:36:25.444Z,33.60
2023-05-10T04:37:25.500Z,33.70
2023-05-10T04:38:25.531Z,31.69
2023-05-10T04:39:25.548Z,34.06
2023-05-10T04:40:25.601Z,34.55
2023-05-10T04:41:25.629Z,32.25
2023-05-10T04:42:25.684Z,32.69
2023-05-10T04:43:25.662Z,33.17
2023-05-10T04:44:25.702Z,32.47
2023-05-10T04:45:25.740Z,33.62
2023-05-10T04:46:25.856Z,30.68
2023-05-10T04:47:25.847Z,33.72
2023-05-10T04:48:25.845Z,33.47
2023-05-10T04:49:26.261Z,35.37
2023-05-10T04:50:25.923Z,33.54
2023-05-10T04:51:25.968Z,31.08
2023-05-10T04:52:25.973Z,29.99
2023-05-10T04:53:25.990Z,31.49
2023-05-10T04:54:26.009Z,32.14
2023-05-10T04:55:26.043Z,32.82
2023-05-10T04:56:26.090Z,32.96
2023-05-10T04:57:26.140Z,32.68
2023-05-10T04:58:26.167Z,32.65
2023-05-10T04:59:26.228Z,31.80
2023-05-10T05:00:26.251Z,35.86
2023-05-10T05:01:26.298Z,33.93
2023-05-10T05:02:26.364Z,33.34
2023-05-10T05:03:26.447Z,33.24
2023-05-10T05:04:26.775Z,32.85
2023-05-10T05:05:26.398Z,33.89
2023-05-10T05:06:26.431Z,36.27
2023-05-10T05:07:26.447Z,38.17
2023-05-10T05:08:26.498Z,38.14
2023-05-10T05:09:26.566Z,39.65
2023-05-10T05:10:26.565Z,39.00
2023-05-10T05:11:27.277Z,41.35
2023-05-10T05:12:26.618Z,40.00
2023-05-10T05:13:26.725Z,42.02
2023-05-10T05:14:26.713Z,39.60
2023-05-10T05:15:26.716Z,40.32
2023-05-10T05:16:26.821Z,43.54
2023-05-10T05:17:26.821Z,41.48
2023-05-10T05:18:26.810Z,43.67
2023-05-10T05:19:26.833Z,41.95
2023-05-10T05:20:26.885Z,44.62
2023-05-10T05:21:26.879Z,45.46
2023-05-10T05:22:26.941Z,43.86
2023-05-10T05:23:26.918Z,42.70
2023-05-10T05:24:26.975Z,43.12
2023-05-10T05:25:27.021Z,42.90
2023-05-10T05:26:27.028Z,46.74
2023-05-10T05:27:27.060Z,45.74
2023-05-10T05:28:27.083Z,46.12
2023-05-10T05:29:27.091Z,47.63
2023-05-10T05:30:27.107Z,45.25
2023-05-10T05:31:27.167Z,48.04
2023-05-10T05:32:27.219Z,45.76
2023-05-10T05:33:27.233Z,49.41
2023-05-10T05:34:27.278Z,48.31
2023-05-10T05:35:27.290Z,49.61
2023-05-10T05:36:27.331Z,46.35
2023-05-10T05:37:27.344Z,47.72
2023-05-10T05:38:27.415Z,47.39
2023-05-10T05:39:27.464Z,48.01
2023-05-10T05:40:27.470Z,47.75
2023-05-10T05:41:27.455Z,47.01
2023-05-10T05:42:27.507Z,47.21
2023-05-10T05:43:27.588Z,48.84
2023-05-10T05:44:27.809Z,48.89
2023-05-10T05:45:27.616Z,47.84
2023-05-10T05:46:27.695Z,43.77
2023-05-10T05:47:27.661Z,38.44
2023-05-10T05:48:27.688Z,40.17
2023-05-10T05:49:27.802Z,44.52
2023-05-10T05:50:27.772Z,48.57
2023-05-10T05:51:27.791Z,46.12
2023-05-10T05:52:27.834Z,47.80
2023-05-10T05:53:27.882Z,47.52
2023-05-10T05:54:28.368Z,47.74
2023-05-10T05:55:27.884Z,50.91
2023-05-10T05:56:27.920Z,48.35
2023-05-10T05:57:27.902Z,50.72
2023-05-10T05:58:28.002Z,51.00
2023-05-10T05:59:27.938Z,55.20
2023-05-10T06:00:28.008Z,53.39
2023-05-10T06:01:27.980Z,49.68
2023-05-10T06:02:28.107Z,54.65
2023-05-10T06:03:28.111Z,55.29
2023-05-10T06:04:28.442Z,58.18
2023-05-10T06:05:28.079Z,57.62
2023-05-10T06:06:28.105Z,57.90
2023-05-10T06:07:28.075Z,58.15
2023-05-10T06:08:28.138Z,58.31
2023-05-10T06:09:28.144Z,59.23
2023-05-10T06:10:28.211Z,60.52
2023-05-10T06:11:28.160Z,57.63
2023-05-10T06:12:28.159Z,61.29
2023-05-10T06:13:28.324Z,61.62
2023-05-10T06:14:28.305Z,60.67
2023-05-10T06:15:28.223Z,62.21
2023-05-10T06:16:28.226Z,63.17
2023-05-10T06:17:28.319Z,58.69
2023-05-10T06:18:28.271Z,62.04
2023-05-10T06:19:28.317Z,60.52
2023-05-10T06:20:28.419Z,61.71
2023-05-10T06:21:28.325Z,63.71
2023-05-10T06:22:28.336Z,61.89
2023-05-10T06:23:29.360Z,63.69
2023-05-10T06:24:28.818Z,63.24
2023-05-10T06:25:28.395Z,64.97
2023-05-10T06:26:28.434Z,61.73
2023-05-10T06:27:28.437Z,62.31
2023-05-10T06:28:28.451Z,64.10
2023-05-10T06:29:28.826Z,61.29
2023-05-10T06:30:28.589Z,63.20
2023-05-10T06:31:28.543Z,63.29
2023-05-10T06:32:28.586Z,63.80
2023-05-10T06:33:28.566Z,64.71
2023-05-10T06:34:28.830Z,62.41
2023-05-10T06:35:28.574Z,60.99
2023-05-10T06:36:28.640Z,62.36
2023-05-10T06:37:28.647Z,63.27
2023-05-10T06:38:28.673Z,63.89
2023-05-10T06:39:28.703Z,62.07
2023-05-10T06:40:28.720Z,60.36
2023-05-10T06:41:28.725Z,62.54
2023-05-10T06:42:28.746Z,62.40
2023-05-10T06:43:28.761Z,62.56
2023-05-10T06:44:28.818Z,62.69
2023-05-10T06:45:28.802Z,63.17
2023-05-10T06:46:28.883Z,61.33
2023-05-10T06:47:28.896Z,59.92
2023-05-10T06:48:28.893Z,61.22
2023-05-10T06:49:29.346Z,61.93
2023-05-10T06:50:28.943Z,60.89
2023-05-10T06:51:28.933Z,60.71
2023-05-10T06:52:28.981Z,60.12
2023-05-10T06:53:28.996Z,60.75
2023-05-10T06:54:29.342Z,58.56
2023-05-10T06:55:29.074Z,58.24
2023-05-10T06:56:29.094Z,55.66
2023-05-10T06:57:32.056Z,54.15
2023-05-10T06:58:29.087Z,56.75
2023-05-10T06:59:29.251Z,56.19
2023-05-10T07:00:29.113Z,67.93
2023-05-10T07:01:29.113Z,70.56
2023-05-10T07:02:29.190Z,84.39
2023-05-10T07:03:29.056Z,92.59
2023-05-10T07:04:29.218Z,95.93
2023-05-10T07:05:29.229Z,98.87
2023-05-10T07:06:33.424Z,106.03
2023-05-10T07:07:29.011Z,106.40
2023-05-10T07:08:29.000Z,104.50
2023-05-10T07:09:29.006Z,106.21
2023-05-10T07:10:29.016Z,107.41
2023-05-10T07:11:28.992Z,105.07
2023-05-10T07:12:29.033Z,108.28
2023-05-10T07:13:29.085Z,110.04
2023-05-10T07:14:29.011Z,108.68
2023-05-10T07:15:28.975Z,113.19
2023-05-10T07:16:29.001Z,116.74
2023-05-10T07:17:29.069Z,115.20
2023-05-10T07:18:29.050Z,120.43
2023-05-10T07:19:28.926Z,121.51
2023-05-10T07:20:29.369Z,119.64
2023-05-10T07:21:28.979Z,125.69
2023-05-10T07:22:28.905Z,126.56
2023-05-10T07:23:28.983Z,121.11
2023-05-10T07:24:29.035Z,116.88
2023-05-10T07:25:29.116Z,113.92
2023-05-10T07:26:29.166Z,115.05
2023-05-10T07:27:29.186Z,117.98
2023-05-10T07:28:29.282Z,121.25
2023-05-10T07:29:29.327Z,125.53
2023-05-10T07:30:29.414Z,130.08
2023-05-10T07:31:29.562Z,132.00
2023-05-10T07:32:29.709Z,132.18
2023-05-10T07:33:29.507Z,132.02
2023-05-10T07:34:29.586Z,134.46
2023-05-10T07:35:29.864Z,129.28
2023-05-10T07:36:29.684Z,135.77
2023-05-10T07:37:29.713Z,136.56
2023-05-10T07:38:29.738Z,137.30
2023-05-10T07:39:29.803Z,138.52
2023-05-10T07:40:29.856Z,141.26
2023-05-10T07:41:29.909Z,145.30
2023-05-10T07:42:29.948Z,143.65
2023-05-10T07:43:29.982Z,145.96
2023-05-10T07:44:30.013Z,148.60
2023-05-10T07:45:30.071Z,152.90
2023-05-10T07:46:30.122Z,139.31
2023-05-10T07:47:30.178Z,101.60
2023-05-10T07:48:30.174Z,87.24
2023-05-10T07:49:30.240Z,95.42
2023-05-10T07:50:30.383Z,104.84
2023-05-10T07:51:30.301Z,101.36
2023-05-10T07:52:30.305Z,98.67
2023-05-10T07:53:30.286Z,99.00
2023-05-10T07:54:30.321Z,91.47
2023-05-10T07:55:30.383Z,92.26
2023-05-10T07:56:30.339Z,101.03
2023-05-10T07:57:30.304Z,110.22
2023-05-10T07:58:30.333Z,104.19
2023-05-10T07:59:30.337Z,103.63
2023-05-10T08:00:30.401Z,105.13
2023-05-10T08:01:30.314Z,108.43
2023-05-10T08:02:30.450Z,111.28
2023-05-10T08:03:30.376Z,115.54
2023-05-10T08:04:30.419Z,110.29
2023-05-10T08:05:30.879Z,111.42
2023-05-10T08:06:30.458Z,114.95
2023-05-10T08:07:30.485Z,113.88
2023-05-10T08:08:30.599Z,112.94
2023-05-10T08:09:30.559Z,106.32
2023-05-10T08:10:30.891Z,101.67
2023-05-10T08:11:30.707Z,97.37
2023-05-10T08:12:30.771Z,103.56
2023-05-10T08:13:30.812Z,103.80
2023-05-10T08:14:30.892Z,107.26
2023-05-10T08:15:30.924Z,108.71
2023-05-10T08:16:31.001Z,113.97
2023-05-10T08:17:31.022Z,109.18
2023-05-10T08:18:31.088Z,109.80
2023-05-10T08:19:31.126Z,111.56
2023-05-10T08:20:31.153Z,115.44
2023-05-10T08:21:31.174Z,115.81
2023-05-10T08:22:31.211Z,117.76
2023-05-10T08:23:31.252Z,117.46
2023-05-10T08:24:31.302Z,118.31
2023-05-10T08:25:31.341Z,121.39
2023-05-10T08:26:31.332Z,121.64
2023-05-10T08:27:31.355Z,117.20
2023-05-10T08:28:31.400Z,117.93
2023-05-10T08:29:42.353Z,123.09
2023-05-10T08:30:32.878Z,123.30
2023-05-10T08:31:31.420Z,123.82
2023-05-10T08:32:31.420Z,124.24
2023-05-10T08:33:31.386Z,127.14
2023-05-10T08:34:31.362Z,132.96
2023-05-10T08:35:31.417Z,132.14
2023-05-10T08:36:31.361Z,132.32
2023-05-10T08:37:31.353Z,128.03
2023-05-10T08:38:31.374Z,130.70
2023-05-10T08:39:31.329Z,130.04
2023-05-10T08:40:31.424Z,123.36
2023-05-10T08:41:31.326Z,124.05
2023-05-10T08:42:31.308Z,126.15
2023-05-10T08:43:31.458Z,128.90
2023-05-10T08:44:31.310Z,125.71
2023-05-10T08:45:31.317Z,126.58
2023-05-10T08:46:31.354Z,126.19
2023-05-10T08:47:31.410Z,112.16
2023-05-10T08:48:31.294Z,105.03
2023-05-10T08:49:31.280Z,101.76
2023-05-10T08:50:31.312Z,111.60
2023-05-10T08:51:31.270Z,122.14
2023-05-10T08:52:31.248Z,119.83
2023-05-10T08:53:31.240Z,117.61
2023-05-10T08:54:31.270Z,120.38
2023-05-10T08:55:31.306Z,109.03
2023-05-10T08:56:31.348Z,108.78
2023-05-10T08:57:31.357Z,117.48
2023-05-10T08:58:31.380Z,121.75
2023-05-10T08:59:31.431Z,121.63
2023-05-10T09:00:31.556Z,123.21
2023-05-10T09:01:31.681Z,118.50
2023-05-10T09:02:31.599Z,122.38
2023-05-10T09:03:31.608Z,119.50
2023-05-10T09:04:31.759Z,117.59
2023-05-10T09:05:31.738Z,115.42
2023-05-10T09:06:31.752Z,110.84
2023-05-10T09:07:31.809Z,109.22
2023-05-10T09:08:31.866Z,107.81
2023-05-10T09:09:31.922Z,104.48
2023-05-10T09:10:32.013Z,102.99
2023-05-10T09:11:32.062Z,101.76
2023-05-10T09:12:32.126Z,99.13
2023-05-10T09:13:32.197Z,97.16
2023-05-10T09:14:32.208Z,93.15
2023-05-10T09:15:32.446Z,91.44
2023-05-10T09:16:32.373Z,90.26
2023-05-10T09:17:32.422Z,88.70
2023-05-10T09:18:32.434Z,92.59
2023-05-10T09:19:32.460Z,103.44
2023-05-10T09:20:32.518Z,104.97
2023-05-10T09:21:32.517Z,102.83
2023-05-10T09:22:32.554Z,103.44
2023-05-10T09:23:32.609Z,98.31
2023-05-10T09:24:32.625Z,96.76
2023-05-10T09:25:32.692Z,95.19
2023-05-10T09:26:32.734Z,91.74
2023-05-10T09:27:32.790Z,85.61
2023-05-10T09:28:32.861Z,84.28
2023-05-10T09:29:32.921Z,80.62
2023-05-10T09:30:33.015Z,78.15
2023-05-10T09:31:32.998Z,79.31
2023-05-10T09:32:33.067Z,76.36
2023-05-10T09:33:33.051Z,75.28
2023-05-10T09:34:33.102Z,69.78
2023-05-10T09:35:33.104Z,72.39
2023-05-10T09:36:33.138Z,72.91
2023-05-10T09:37:33.139Z,68.01
2023-05-10T09:38:33.152Z,65.49
2023-05-10T09:39:33.180Z,64.58
2023-05-10T09:40:33.456Z,61.67
2023-05-10T09:41:33.580Z,59.31
2023-05-10T09:42:33.135Z,59.42
2023-05-10T09:43:33.158Z,56.96
2023-05-10T09:44:33.111Z,53.83
2023-05-10T09:45:34.605Z,56.63
2023-05-10T09:46:33.194Z,54.95
2023-05-10T09:47:33.137Z,55.28
2023-05-10T09:48:33.100Z,57.95
2023-05-10T09:49:33.136Z,56.08
2023-05-10T09:50:33.448Z,56.42
2023-05-10T09:51:34.052Z,54.56
2023-05-10T09:52:33.102Z,51.25
2023-05-10T09:53:33.098Z,51.98
2023-05-10T09:54:33.115Z,49.55
2023-05-10T09:55:33.437Z,51.46
2023-05-10T09:56:33.166Z,49.22
2023-05-10T09:57:34.638Z,48.02
2023-05-10T09:58:33.155Z,49.36
2023-05-10T09:59:33.115Z,49.51
2023-05-10T10:00:33.477Z,47.94
2023-05-10T10:01:33.141Z,49.24
2023-05-10T10:02:33.169Z,49.78
2023-05-10T10:03:33.129Z,49.67
2023-05-10T10:04:33.253Z,47.39
2023-05-10T10:05:33.169Z,48.71
2023-05-10T10:06:33.122Z,43.91
2023-05-10T10:07:33.179Z,47.99
2023-05-10T10:08:33.148Z,46.05
2023-05-10T10:09:33.197Z,44.39
2023-05-10T10:10:33.198Z,43.26
2023-05-10T10:11:33.175Z,45.25
2023-05-10T10:12:33.192Z,44.15
2023-05-10T10:13:33.224Z,42.82
2023-05-10T10:14:33.184Z,38.86
2023-05-10T10:15:33.471Z,40.04
2023-05-10T10:16:33.285Z,38.58
2023-05-10T10:17:33.229Z,40.76
2023-05-10T10:18:33.303Z,38.70
2023-05-10T10:19:33.258Z,38.88
2023-05-10T10:20:33.323Z,37.96
2023-05-10T10:21:33.315Z,35.57
2023-05-10T10:22:33.323Z,35.53
2023-05-10T10:23:33.323Z,37.16
2023-05-10T10:24:33.348Z,35.24
2023-05-10T10:25:33.468Z,36.90
2023-05-10T10:26:33.362Z,37.82
2023-05-10T10:27:33.401Z,34.63
2023-05-10T10:28:33.420Z,33.04
2023-05-10T10:29:33.395Z,33.93
2023-05-10T10:30:33.456Z,37.57
2023-05-10T10:31:33.499Z,32.72
2023-05-10T10:32:33.493Z,31.51
2023-05-10T10:33:33.525Z,34.42
2023-05-10T10:34:33.493Z,32.50
2023-05-10T10:35:33.990Z,29.17
2023-05-10T10:36:33.522Z,29.72
2023-05-10T10:37:33.566Z,28.84
2023-05-10T10:38:33.567Z,29.09
2023-05-10T10:39:33.585Z,32.48
2023-05-10T10:40:35.102Z,32.82
2023-05-10T10:41:33.625Z,34.80
2023-05-10T10:42:33.619Z,31.71
2023-05-10T10:43:33.664Z,35.26
2023-05-10T10:44:33.736Z,33.58
2023-05-10T10:45:33.714Z,31.47
2023-05-10T10:46:33.787Z,31.33
2023-05-10T10:47:33.875Z,31.41
2023-05-10T10:48:33.818Z,32.59
2023-05-10T10:49:33.841Z,32.92
2023-05-10T10:50:33.853Z,30.56
2023-05-10T10:51:33.921Z,30.12
2023-05-10T10:52:33.939Z,29.36
2023-05-10T10:53:33.931Z,33.22
2023-05-10T10:54:33.952Z,34.50
2023-05-10T10:55:34.000Z,33.78
2023-05-10T10:56:35.204Z,45.22
2023-05-10T10:57:34.049Z,45.92
2023-05-10T10:58:33.988Z,42.27
2023-05-10T10:59:34.009Z,47.27
2023-05-10T11:00:34.002Z,56.11
2023-05-10T11:01:34.566Z,62.31
2023-05-10T11:02:33.982Z,67.78
2023-05-10T11:03:33.986Z,73.63
2023-05-10T11:04:34.024Z,78.89
2023-05-10T11:05:33.941Z,82.38
2023-05-10T11:06:33.981Z,90.28
2023-05-10T11:07:33.947Z,90.27
2023-05-10T11:08:35.709Z,93.43
2023-05-10T11:09:33.954Z,93.78
2023-05-10T11:10:33.917Z,94.86
2023-05-10T11:11:34.015Z,96.94
2023-05-10T11:12:33.932Z,90.61
2023-05-10T11:13:33.917Z,82.06
2023-05-10T11:14:33.914Z,76.72
2023-05-10T11:15:33.981Z,69.37
2023-05-10T11:16:34.047Z,66.23
2023-05-10T11:17:33.924Z,60.30
2023-05-10T11:18:33.916Z,60.27
2023-05-10T11:19:33.849Z,56.04
2023-05-10T11:20:33.842Z,49.17
2023-05-10T11:21:34.005Z,233.57
2023-05-10T11:22:33.841Z,109.05
2023-05-10T11:23:33.842Z,82.57
2023-05-10T11:24:33.827Z,67.96
2023-05-10T11:25:33.825Z,66.95
2023-05-10T11:26:34.035Z,59.69
2023-05-10T11:27:33.804Z,59.01
2023-05-10T11:28:33.815Z,56.54
2023-05-10T11:29:33.813Z,49.37
2023-05-10T11:30:33.816Z,43.02
2023-05-10T11:31:33.982Z,42.98
2023-05-10T11:32:33.832Z,35.66
2023-05-10T11:33:33.747Z,34.00
2023-05-10T11:34:33.746Z,37.73
2023-05-10T11:35:33.736Z,40.55
2023-05-10T11:36:34.082Z,44.01
2023-05-10T11:37:33.749Z,44.26
2023-05-10T11:38:33.713Z,45.43
2023-05-10T11:39:33.683Z,44.08
2023-05-10T11:40:33.724Z,47.43
2023-05-10T11:41:33.694Z,48.70
2023-05-10T11:42:33.687Z,49.17
2023-05-10T11:43:33.699Z,49.78
2023-05-10T11:44:33.677Z,51.11
2023-05-10T11:45:33.680Z,53.34
2023-05-10T11:46:34.100Z,51.04
2023-05-10T11:47:33.679Z,52.31
2023-05-10T11:48:33.677Z,51.67
2023-05-10T11:49:33.688Z,52.09
2023-05-10T11:50:33.646Z,55.32
2023-05-10T11:51:34.511Z,53.46
2023-05-10T11:52:33.616Z,56.37
2023-05-10T11:53:33.605Z,53.59
2023-05-10T11:54:33.609Z,53.78
2023-05-10T11:55:34.510Z,55.62
2023-05-10T11:56:34.011Z,57.72
2023-05-10T11:57:33.583Z,55.56
2023-05-10T11:58:33.575Z,57.18
2023-05-10T11:59:33.566Z,57.62
2023-05-10T12:00:33.576Z,55.60
2023-05-10T12:01:33.567Z,53.96
2023-05-10T12:02:33.567Z,57.22
2023-05-10T12:03:33.846Z,56.78
2023-05-10T12:04:33.572Z,55.26
2023-05-10T12:05:33.503Z,54.74
2023-05-10T12:06:33.602Z,56.11
2023-05-10T12:07:33.542Z,55.19
2023-05-10T12:08:33.565Z,50.56
2023-05-10T12:09:43.420Z,51.94
2023-05-10T12:10:34.621Z,52.27
2023-05-10T12:11:34.036Z,52.35
2023-05-10T12:12:33.619Z,53.89
2023-05-10T12:13:33.583Z,53.13
2023-05-10T12:14:33.581Z,57.24
2023-05-10T12:15:33.565Z,53.39
2023-05-10T12:16:34.093Z,57.91
2023-05-10T12:17:33.601Z,57.77
2023-05-10T12:18:33.521Z,56.30
2023-05-10T12:19:33.533Z,58.90
2023-05-10T12:20:33.552Z,59.35
2023-05-10T12:21:33.530Z,49.30
2023-05-10T12:22:33.531Z,39.77
2023-05-10T12:23:33.563Z,36.55
2023-05-10T12:24:33.619Z,31.95
2023-05-10T12:25:33.663Z,30.29
2023-05-10T12:26:33.685Z,29.55
2023-05-10T12:27:33.732Z,30.74
2023-05-10T12:28:33.853Z,32.29
2023-05-10T12:29:33.861Z,31.42
2023-05-10T12:30:33.873Z,34.25
2023-05-10T12:31:34.086Z,34.72
2023-05-10T12:32:33.993Z,39.25
2023-05-10T12:33:33.985Z,38.93
2023-05-10T12:34:34.045Z,39.80
2023-05-10T12:35:35.098Z,40.63
2023-05-10T12:36:34.564Z,41.25
2023-05-10T12:37:34.163Z,41.84
2023-05-10T12:38:34.200Z,41.58
2023-05-10T12:39:34.240Z,39.01
2023-05-10T12:40:34.282Z,43.90
2023-05-10T12:41:34.322Z,41.11
2023-05-10T12:42:34.352Z,43.99
2023-05-10T12:43:34.407Z,43.35
2023-05-10T12:44:34.412Z,45.30
2023-05-10T12:45:34.540Z,43.88
2023-05-10T12:46:34.564Z,44.92
2023-05-10T12:47:34.561Z,43.58
2023-05-10T12:48:34.579Z,42.67
2023-05-10T12:49:34.603Z,45.12
2023-05-10T12:50:34.644Z,45.11